Map

Track Data

SID SEASON NUMBER BASIN SUBBASIN NAME ISO_TIME NATURE LAT LON WMO_WIND WMO_PRES WMO_AGENCY TRACK_TYPE DIST2LAND LANDFALL IFLAG USA_AGENCY USA_ATCF_ID USA_LAT USA_LON USA_RECORD USA_STATUS USA_WIND USA_PRES USA_SSHS USA_R34_NE USA_R34_SE USA_R34_SW USA_R34_NW USA_R50_NE USA_R50_SE USA_R50_SW USA_R50_NW USA_R64_NE USA_R64_SE USA_R64_SW USA_R64_NW USA_POCI USA_ROCI USA_RMW USA_EYE TOKYO_LAT TOKYO_LON TOKYO_GRADE TOKYO_WIND TOKYO_PRES TOKYO_R50_DIR TOKYO_R50_LONG TOKYO_R50_SHORT TOKYO_R30_DIR TOKYO_R30_LONG TOKYO_R30_SHORT TOKYO_LAND CMA_LAT CMA_LON CMA_CAT CMA_WIND CMA_PRES HKO_LAT HKO_LON HKO_CAT HKO_WIND HKO_PRES NEWDELHI_LAT NEWDELHI_LON NEWDELHI_GRADE NEWDELHI_WIND NEWDELHI_PRES NEWDELHI_CI NEWDELHI_DP NEWDELHI_POCI REUNION_LAT REUNION_LON REUNION_TYPE REUNION_WIND REUNION_PRES REUNION_TNUM REUNION_CI REUNION_RMW REUNION_R34_NE REUNION_R34_SE REUNION_R34_SW REUNION_R34_NW REUNION_R50_NE REUNION_R50_SE REUNION_R50_SW REUNION_R50_NW REUNION_R64_NE REUNION_R64_SE REUNION_R64_SW REUNION_R64_NW BOM_LAT BOM_LON BOM_TYPE BOM_WIND BOM_PRES BOM_TNUM BOM_CI BOM_RMW BOM_R34_NE BOM_R34_SE BOM_R34_SW BOM_R34_NW BOM_R50_NE BOM_R50_SE BOM_R50_SW BOM_R50_NW BOM_R64_NE BOM_R64_SE BOM_R64_SW BOM_R64_NW BOM_ROCI BOM_POCI BOM_EYE BOM_POS_METHOD BOM_PRES_METHOD NADI_LAT NADI_LON NADI_CAT NADI_WIND NADI_PRES WELLINGTON_LAT WELLINGTON_LON WELLINGTON_WIND WELLINGTON_PRES DS824_LAT DS824_LON DS824_STAGE DS824_WIND DS824_PRES TD9636_LAT TD9636_LON TD9636_STAGE TD9636_WIND TD9636_PRES TD9635_LAT TD9635_LON TD9635_WIND TD9635_PRES TD9635_ROCI NEUMANN_LAT NEUMANN_LON NEUMANN_CLASS NEUMANN_WIND NEUMANN_PRES MLC_LAT MLC_LON MLC_CLASS MLC_WIND MLC_PRES USA_GUST BOM_GUST BOM_GUST_PER REUNION_GUST REUNION_GUST_PER USA_SEAHGT USA_SEARAD_NE USA_SEARAD_SE USA_SEARAD_SW USA_SEARAD_NW STORM_SPEED STORM_DIR
1970364S15165 1971 161 SP MM ROSIE 1970-12-30 00:00:00 TS -14.7600 164.960 30 997 wellington main 161 150 O_______OOO_O_ jtwc_sh SH071971 -14.8000 165.600 -1 -14.7000 164.000 30 997 -14.8000 165.600 TC 35 -14.8000 165.600 2 -14.7000 164.000 TC 15 5 136
1970364S15165 1971 161 SP MM ROSIE 1970-12-30 03:00:00 TS -14.9241 165.122 main 150 133 P_______PPP_P_ SH071971 -15.0075 165.553 -1 -14.8310 164.581 30 997 -15.0075 165.553 TC 35 -14.9922 165.544 2 -14.7825 164.380 TC 15 4 137
1970364S15165 1971 161 SP MM ROSIE 1970-12-30 06:00:00 TS -15.0892 165.274 main 133 126 O_______POP_O_ jtwc_sh SH071971 -15.2000 165.500 -1 -14.9687 165.080 30 997 -15.2000 165.500 TC 35 -15.1775 165.490 2 -14.9000 164.800 TC 15 4 141
1970364S15165 1971 161 SP MM ROSIE 1970-12-30 09:00:00 TS -15.2557 165.398 main 128 128 P_______PPP_P_ SH071971 -15.3650 165.443 -1 -15.1220 165.414 30 997 -15.3650 165.443 TC 35 -15.3491 165.441 2 -15.0776 165.247 TC 17 4 154
1970364S15165 1971 161 SP MM ROSIE 1970-12-30 12:00:00 TS -15.4200 165.440 30 997 wellington main 128 128 O_______OOO_O_ jtwc_sh SH071971 -15.5000 165.400 -1 -15.3000 165.500 30 997 -15.5000 165.400 TC 35 -15.5000 165.400 2 -15.3000 165.500 TC 20 3 185
1970364S15165 1971 161 SP MM ROSIE 1970-12-30 15:00:00 TS -15.5758 165.362 main 130 130 P_______PPP_P_ SH071971 -15.6000 165.400 -1 -15.5093 165.296 32 995 -15.6000 165.400 TC 35 -15.6272 165.368 2 -15.5425 165.348 TC 20 4 214
1970364S15165 1971 161 SP MM ROSIE 1970-12-30 18:00:00 TS -15.7381 165.215 main 153 153 O_______POP_O_ jtwc_sh SH071971 -15.7000 165.400 -1 -15.7479 164.930 35 993 -15.7000 165.400 TC 35 -15.7425 165.342 2 -15.8000 165.000 TC 20 5 223
1970364S15165 1971 161 SP MM ROSIE 1970-12-30 21:00:00 TS -15.9158 165.037 main 180 180 P_______PPP_P_ SH071971 -15.8350 165.350 -1 -16.0123 164.574 37 991 -15.8350 165.350 TC 35 -15.8616 165.321 2 -16.0350 164.588 TC 22 5 215
1970364S15165 1971 161 SP MM ROSIE 1970-12-31 00:00:00 TS -16.1200 164.940 40 990 wellington main 198 189 O_______OOO_O_ jtwc_sh SH071971 -16.0000 165.300 -1 -16.3000 164.400 40 990 -16.0000 165.300 TC 35 -16.0000 165.300 2 -16.3000 164.400 TC 25 5 174
1970364S15165 1971 161 SP MM ROSIE 1970-12-31 03:00:00 TS -16.3647 165.084 main 195 189 P_______PPP_P_ SH071971 -16.1925 165.300 -1 -16.6130 164.745 40 990 -16.1925 165.300 TC 35 -16.1825 165.279 2 -16.6429 164.794 TC 25 6 145
1970364S15165 1971 161 SP MM ROSIE 1970-12-31 06:00:00 TS -16.6259 165.306 main 189 185 O_______POP_O_ jtwc_sh SH071971 -16.4000 165.300 -1 -16.9448 165.274 40 990 -16.4000 165.300 TC 35 -16.3850 165.257 2 -17.0000 165.400 TC 25 7 143
1970364S15165 1971 161 SP MM ROSIE 1970-12-31 09:00:00 TS -16.8808 165.494 main 192 189 P_______PPP_P_ SH071971 -16.6075 165.258 -1 -17.2788 165.817 40 990 -16.6075 165.258 TC 35 -16.5950 165.232 2 -17.3151 165.905 TC 27 6 150
1970364S15165 1971 161 SP MM ROSIE 1970-12-31 12:00:00 TS -17.1200 165.600 40 990 wellington main 195 195 O_______OOO_O_ jtwc_sh SH071971 -16.8000 165.200 -1 -17.6000 166.200 40 990 -16.8000 165.200 TC 35 -16.8000 165.200 2 -17.6000 166.200 TC 30 4 174
1970364S15165 1971 161 SP MM ROSIE 1970-12-31 15:00:00 TS -17.3153 165.542 main 217 217 P_______PPP_P_ SH071971 -16.9500 165.150 -1 -17.8850 166.172 43 987 -16.9500 165.150 TC 35 -16.9416 165.149 2 -17.8500 166.090 TC 30 4 205
1970364S15165 1971 161 SP MM ROSIE 1970-12-31 18:00:00 TS -17.5080 165.412 main 239 239 O_______POP_O_ jtwc_sh SH071971 -17.1000 165.100 -1 -18.1574 165.967 47 985 -17.1000 165.100 TC 35 -17.0825 165.093 2 -18.1000 165.800 TC 30 5 212
1970364S15165 1971 161 SP MM ROSIE 1970-12-31 21:00:00 TS -17.7202 165.278 main 260 260 P_______PPP_P_ SH071971 -17.2625 165.043 -1 -18.4260 165.678 51 982 -17.2625 165.043 TC 35 -17.2572 165.040 2 -18.3925 165.585 TC 32 5 207
1970364S15165 1971 161 SP MM ROSIE 1971-01-01 00:00:00 TS -17.9800 165.160 55 980 wellington main 267 232 O_______OOO_O_ jtwc_sh SH071971 -17.5000 165.000 -1 -18.7000 165.400 55 980 -17.5000 165.000 TC 35 -17.5000 165.000 2 -18.7000 165.400 TC 35 6 196
1970364S15165 1971 161 SP MM ROSIE 1971-01-01 03:00:00 TS -18.3166 165.100 main 232 189 P_______PPP_P_ SH071971 -17.8625 164.992 -1 -18.9887 165.255 55 980 -17.8625 164.992 TC 35 -17.8694 164.978 2 -19.0000 165.285 TC 37 7 187
1970364S15165 1971 161 SP MM ROSIE 1971-01-01 06:00:00 TS -18.6980 165.062 main 189 144 O_______POP_O_ jtwc_sh SH071971 -18.3000 165.000 -1 -19.2849 165.140 55 980 -18.3000 165.000 TC 35 -18.3050 164.970 2 -19.3000 165.200 TC 40 8 185
1970364S15165 1971 161 SP MM ROSIE 1971-01-01 09:00:00 TS -19.0964 165.024 main 144 103 P_______PPP_P_ SH071971 -18.7650 165.000 -1 -19.5887 165.055 55 980 -18.7650 165.000 TC 35 -18.7631 164.978 2 -19.6000 165.085 TC 42 8 184
1970364S15165 1971 161 SP MM ROSIE 1971-01-01 12:00:00 TS -19.4800 165.000 55 980 wellington main 103 76 O_______OOO_O_ jtwc_sh SH071971 -19.2000 165.000 -1 -19.9000 165.000 55 980 -19.2000 165.000 TC 35 -19.2000 165.000 2 -19.9000 165.000 TC 45 7 184
1970364S15165 1971 161 SP MM ROSIE 1971-01-01 15:00:00 TS -19.7744 164.988 main 76 61 P_______PPP_P_ SH071971 -19.5150 164.985 -1 -20.1853 164.967 55 980 -19.5150 164.985 TC 35 -19.4645 165.020 2 -20.1925 164.985 TC 42 6 177
1970364S15165 1971 161 SP MM ROSIE 1971-01-01 18:00:00 TS -20.0595 165.004 main 53 38 O_______POP_O_ jtwc_sh SH071971 -19.8000 165.000 -1 -20.4825 164.962 55 980 -19.8000 165.000 TC 35 -19.7151 165.056 2 -20.5000 165.000 TC 40 6 175
1970364S15165 1971 161 SP MM ROSIE 1971-01-01 21:00:00 TS -20.3618 165.049 main 30 0 P_______PPP_P_ SH071971 -20.0750 165.078 -1 -20.8134 164.976 55 980 -20.0750 165.078 TC 35 -20.0332 165.114 2 -20.8125 165.000 TC 37 7 171
1970364S15165 1971 161 SP MM ROSIE 1971-01-02 00:00:00 TS -20.7800 165.120 55 980 wellington main 0 0 O_______OOO_O_ jtwc_sh SH071971 -20.5000 165.200 -1 -21.2000 165.000 55 980 -20.5000 165.200 TC 35 -20.5000 165.200 2 -21.2000 165.000 TC 35 10 173
1970364S15165 1971 161 SP MM ROSIE 1971-01-02 03:00:00 TS -21.3829 165.192 main 0 0 P_______PPP_P_ SH071971 -21.2101 165.342 -1 -21.5297 164.964 55 980 -21.2101 165.342 TC 35 -21.2374 165.321 2 -21.7275 164.993 TC 37 13 173
1970364S15165 1971 161 SP MM ROSIE 1971-01-02 06:00:00 TS -22.1117 165.283 main 49 49 O_______POP_O_ jtwc_sh SH071971 -22.1000 165.500 -1 -21.9355 164.944 55 980 -22.1000 165.500 TC 35 -22.1229 165.469 2 -22.3000 165.000 TC 40 15 173
1970364S15165 1971 161 SP MM ROSIE 1971-01-02 09:00:00 TS -22.8746 165.383 main 114 114 P_______PPP_P_ SH071971 -23.0650 165.650 -1 -22.4984 164.976 55 980 -23.0650 165.650 TC 35 -23.0719 165.633 2 -22.6725 165.006 TC 37 16 172
1970364S15165 1971 161 SP MM ROSIE 1971-01-02 12:00:00 TS -23.7200 165.520 55 980 wellington main 181 181 O_______OOO_O_ jtwc_sh SH071971 -24.0000 165.800 -1 -23.3000 165.100 55 980 -24.0000 165.800 TC 35 -24.0000 165.800 2 -23.3000 165.100 TC 35 18 171
1970364S15165 1971 161 SP MM ROSIE 1971-01-02 15:00:00 TS -24.6385 165.692 main 266 266 P_______PPP_P_ SH071971 -24.7224 165.950 -1 -24.3954 165.346 51 982 -24.7224 165.950 TC 35 -24.7046 165.914 2 -24.5727 165.340 TC 35 20 169
1970364S15165 1971 161 SP MM ROSIE 1971-01-02 18:00:00 TS -25.6313 165.911 main 366 366 O_______POP_O_ jtwc_sh SH071971 -25.4000 166.100 -1 -25.7315 165.697 47 985 -25.4000 166.100 TC 35 -25.3873 166.032 2 -26.1000 165.700 TC 35 20 168
1970364S15165 1971 161 SP MM ROSIE 1971-01-02 21:00:00 TS -26.5578 166.161 main 472 472 P_______PPP_P_ SH071971 -26.1249 166.221 -1 -27.2273 166.125 43 987 -26.1249 166.221 TC 35 -26.1263 166.184 2 -27.4785 166.137 TC 32 19 165
1970364S15165 1971 161 SP MM ROSIE 1971-01-03 00:00:00 TS -27.4500 166.450 40 990 wellington main 559 559 O_______OOO_O_ jtwc_sh SH071971 -27.0000 166.400 -1 -28.8000 166.600 40 990 -27.0000 166.400 TC 35 -27.0000 166.400 2 -28.8000 166.600 TC 30 19 163
1970364S15165 1971 161 SP MM ROSIE 1971-01-03 03:00:00 TS -28.3908 166.806 main 670 670 P________PP_P_ SH071971 -28.1251 166.705 -1 -28.1251 166.705 TC 35 -28.1277 166.748 2 -30.1178 167.037 TC 20 163
1970364S15165 1971 161 SP MM ROSIE 1971-01-03 06:00:00 TS -29.3965 167.121 main 769 645 O________OP_P_ jtwc_sh SH071971 -29.4000 167.100 -1 -29.4000 167.100 TC 35 -29.3895 167.163 2 -31.4001 167.451 TC 24 164
1970364S15165 1971 161 SP MM ROSIE 1971-01-03 09:00:00 TS -30.7072 167.570 main 630 516 P________PP_P_ SH071971 -30.7077 167.557 -1 -30.7077 167.557 TC 35 -30.7063 167.598 2 -32.6369 167.833 TC 27 164
1970364S15165 1971 161 SP MM ROSIE 1971-01-03 12:00:00 TS -32.0000 168.000 40 990 wellington main 509 426 O________OO_P_ jtwc_sh SH071971 -32.0000 168.000 -1 -32.0000 168.000 TC 35 -32.0000 168.000 2 -33.8180 168.173 TC 26 165
1970364S15165 1971 161 SP MM ROSIE 1971-01-03 15:00:00 TS -33.2001 168.354 main 413 366 P________PP_P_ SH071971 -33.1797 168.339 -1 -33.1797 168.339 TC 35 -33.2409 168.383 2 -34.9329 168.458 TC 24 167
1970364S15165 1971 161 SP MM ROSIE 1971-01-03 18:00:00 TS -34.3453 168.637 main 366 348 O________OP_P_ jtwc_sh SH071971 -34.3000 168.600 -1 -34.3000 168.600 TC 35 -34.4358 168.711 2 -35.9714 168.677 TC 23 169
1970364S15165 1971 161 SP MM ROSIE 1971-01-03 21:00:00 TS -35.4859 168.889 main 354 354 P________PP_P_ SH071971 -35.4599 168.867 -1 -35.4599 168.867 TC 35 -35.5379 168.935 2 -36.9229 168.817 TC 22 172
1970364S15165 1971 161 SP MM ROSIE 1971-01-04 00:00:00 TS -36.5000 169.000 40 990 wellington main 394 394 O________OO_P_ jtwc_sh SH071971 -36.5000 169.000 -1 -36.5000 169.000 TC 35 -36.5000 169.000 2 -37.7767 168.864 TC 19 179
1970364S15165 1971 161 SP MM ROSIE 1971-01-04 03:00:00 TS -37.3382 168.944 main 444 434 P________PP_P_ SH071971 -37.3395 168.956 -1 -37.3395 168.956 TC 35 -37.3355 168.920 2 -38.5219 168.806 TC 15 189
1970364S15165 1971 161 SP MM ROSIE 1971-01-04 06:00:00 TS -38.0080 168.688 main 434 413 O________OP_P_ jtwc_sh SH071971 -38.0000 168.700 -1 -38.0000 168.700 TC 35 -38.0240 168.665 2 -39.1471 168.629 TC 13 203
1970364S15165 1971 161 SP MM ROSIE 1971-01-04 09:00:00 TS -38.5650 168.277 main 412 412 P________PP_P_ SH071971 -38.5597 168.290 -1 -38.5597 168.290 TC 35 -38.5757 168.252 2 -39.6404 168.320 TC 13 218
1970364S15165 1971 161 SP MM ROSIE 1971-01-04 12:00:00 TS -39.0000 167.700 30 997 wellington main 429 429 O________OO_P_ jtwc_sh SH071971 -39.0000 167.700 -1 -39.0000 167.700 TC 35 -39.0000 167.700 2 -39.9894 167.868 TC 13 229
1970364S15165 1971 161 SP MM ROSIE 1971-01-04 15:00:00 TS -39.4181 166.999 main 463 463 P________PP_P_ SH071971 -39.4175 166.996 -1 -39.4175 166.996 TC 35 -39.4193 167.005 2 -40.1807 167.264 TC 14 237
1970364S15165 1971 161 SP MM ROSIE 1971-01-04 18:00:00 TS -39.7401 166.221 main 502 497 O________OP_O_ jtwc_sh SH071971 -39.7000 166.200 -1 -39.7000 166.200 TC 35 -39.7053 166.193 2 -40.2000 166.500 TC 20 13 250
1970364S15165 1971 161 SP MM ROSIE 1971-01-04 21:00:00 TS -39.8676 165.378 main 524 524 P________PP_P_ SH071971 -39.8478 165.370 -1 -39.8478 165.370 TC 35 -39.8381 165.359 2 -40.0474 165.520 TC 20 12 267
1970364S15165 1971 161 SP MM ROSIE 1971-01-05 00:00:00 TS -39.8000 164.600 main 567 567 O________OO_O_ jtwc_sh SH071971 -39.8000 164.600 -1 -39.8000 164.600 TC 35 -39.8000 164.600 2 -39.8000 164.600 TC 20 11 284
1970364S15165 1971 161 SP MM ROSIE 1971-01-05 03:00:00 TS -39.5881 163.948 main 618 618 P________PP_P_ SH071971 -39.5745 163.982 -1 -39.5745 163.982 TC 35 -39.6092 163.925 2 -39.5943 163.903 TC 20 11 302
1970364S15165 1971 161 SP MM ROSIE 1971-01-05 06:00:00 TS -39.2396 163.441 main 679 679 O________OP_O_ jtwc_sh SH071971 -39.2000 163.500 -1 -39.2000 163.500 TC 35 -39.2583 163.365 2 -39.3000 163.400 TC 20 11 317
1970364S15165 1971 161 SP MM ROSIE 1971-01-05 09:00:00 TS -38.8019 163.016 main 735 735 P________PP_P_ SH071971 -38.7799 163.052 -1 -38.7799 163.052 TC 35 -38.8031 162.973 2 -38.8447 162.987 TC 20 11 332
1970364S15165 1971 161 SP MM ROSIE 1971-01-05 12:00:00 TS -38.3000 162.800 main 791 791 O________OO_O_ jtwc_sh SH071971 -38.3000 162.800 -1 -38.3000 162.800 TC 35 -38.3000 162.800 2 -38.3000 162.800 TC 20 10 351
1970364S15165 1971 161 SP MM ROSIE 1971-01-05 15:00:00 TS -37.7878 162.814 main 838 838 P________PP_P_ SH071971 -37.8070 162.773 -1 -37.8070 162.773 TC 35 -37.7949 162.874 2 -37.7421 162.838 TC 20 10 11
1970364S15165 1971 161 SP MM ROSIE 1971-01-05 18:00:00 TS -37.2738 163.061 main 871 859 O________OP_O_ jtwc_sh SH071971 -37.3000 163.000 -1 -37.3000 163.000 TC 35 -37.2951 163.145 2 -37.2000 163.100 TC 20 11 28
1970364S15165 1971 161 SP MM ROSIE 1971-01-05 21:00:00 TS -36.7806 163.486 main 859 802 P________PP_P_ SH071971 -36.7984 163.444 -1 -36.7984 163.444 TC 35 -36.7976 163.543 2 -36.7281 163.513 TC 17 12 38
1970364S15165 1971 161 SP MM ROSIE 1971-01-06 00:00:00 TS -36.3000 164.000 main 802 O________OO_O_ jtwc_sh SH071971 -36.3000 164.000 -1 -36.3000 164.000 TC 35 -36.3000 164.000 2 -36.3000 164.000 TC 15 13 41

Digital Typhoon Data and Search

About IBTrACS Database

This database is a web-friendly format of International Best Track Archive for Climate Stewardship (IBTrACS), a global best track data archive curated by NOAA dating back to 1842.

Updated: 2021-10-21